createdAt,value
2023-04-29T00:00:38.172Z,1.60
2023-04-29T00:03:05.070Z,1.80
2023-04-29T00:05:32.235Z,1.60
2023-04-29T00:07:59.139Z,1.40
2023-04-29T00:10:26.230Z,1.40
2023-04-29T00:12:53.842Z,1.50
2023-04-29T00:15:21.235Z,2.00
2023-04-29T00:17:47.938Z,1.80
2023-04-29T00:20:14.821Z,1.40
2023-04-29T00:22:41.516Z,1.70
2023-04-29T00:25:08.576Z,1.40
2023-04-29T00:27:35.322Z,1.70
2023-04-29T00:30:03.218Z,1.60
2023-04-29T00:32:30.704Z,2.00
2023-04-29T00:34:57.451Z,1.90
2023-04-29T00:37:24.302Z,1.60
2023-04-29T00:39:51.207Z,1.60
2023-04-29T00:42:18.091Z,1.40
2023-04-29T00:44:44.916Z,1.60
2023-04-29T00:47:12.081Z,1.40
2023-04-29T00:49:39.238Z,1.70
2023-04-29T00:52:09.025Z,1.70
2023-04-29T00:54:36.977Z,1.70
2023-04-29T00:57:05.795Z,2.40
2023-04-29T00:59:34.001Z,1.80
2023-04-29T01:02:02.518Z,2.30
2023-04-29T01:04:30.460Z,1.40
2023-04-29T01:07:23.619Z,1.70
2023-04-29T01:10:10.131Z,1.50
2023-04-29T01:12:50.466Z,1.50
2023-04-29T01:15:26.431Z,1.50
2023-04-29T01:18:05.044Z,1.80
2023-04-29T01:20:31.951Z,1.50
2023-04-29T01:22:58.856Z,1.70
2023-04-29T01:25:26.416Z,2.20
2023-04-29T01:28:26.720Z,1.80
2023-04-29T01:31:23.340Z,1.80
2023-04-29T01:34:05.619Z,1.90
2023-04-29T01:37:11.159Z,1.70
2023-04-29T01:40:08.933Z,1.70
2023-04-29T01:42:47.888Z,2.10
2023-04-29T01:45:17.397Z,1.40
2023-04-29T01:47:44.703Z,1.50
2023-04-29T01:50:11.535Z,2.00
2023-04-29T01:52:39.352Z,2.10
2023-04-29T01:55:07.084Z,2.00
2023-04-29T01:57:41.574Z,2.00
2023-04-29T02:00:29.075Z,2.20
2023-04-29T02:02:56.476Z,2.10
2023-04-29T02:05:33.422Z,2.30
2023-04-29T02:08:01.491Z,2.00
2023-04-29T02:10:29.426Z,2.30
2023-04-29T02:13:16.474Z,1.80
2023-04-29T02:15:43.697Z,1.80
2023-04-29T02:18:10.456Z,1.90
2023-04-29T02:20:37.806Z,1.80
2023-04-29T02:23:05.245Z,2.00
2023-04-29T02:25:33.313Z,2.40
2023-04-29T02:28:00.069Z,1.90
2023-04-29T02:30:26.805Z,2.00
2023-04-29T02:32:54.920Z,2.00
2023-04-29T02:35:21.645Z,2.20
2023-04-29T02:37:48.371Z,2.10
2023-04-29T02:40:15.576Z,2.10
2023-04-29T02:42:42.384Z,2.10
2023-04-29T02:45:10.048Z,2.50
2023-04-29T02:47:37.047Z,2.60
2023-04-29T02:50:04.240Z,2.30
2023-04-29T02:52:31.763Z,2.80
2023-04-29T02:54:58.669Z,2.60
2023-04-29T02:57:25.638Z,2.90
2023-04-29T02:59:54.147Z,2.40
2023-04-29T03:02:21.170Z,2.90
2023-04-29T03:04:50.729Z,2.90
2023-04-29T03:07:17.541Z,2.60
2023-04-29T03:09:44.726Z,2.80
2023-04-29T03:12:12.430Z,2.90
2023-04-29T03:14:39.242Z,2.60
2023-04-29T03:17:05.986Z,2.30
2023-04-29T03:19:33.009Z,3.00
2023-04-29T03:21:59.861Z,2.90
2023-04-29T03:24:26.602Z,2.70
2023-04-29T03:26:54.104Z,2.90
2023-04-29T03:29:20.919Z,3.50
2023-04-29T03:31:47.574Z,2.40
2023-04-29T03:34:15.074Z,2.80
2023-04-29T03:36:43.733Z,2.60
2023-04-29T03:39:12.000Z,2.20
2023-04-29T03:41:38.674Z,2.70
2023-04-29T03:44:05.389Z,2.70
2023-04-29T03:48:44.094Z,2.70
2023-04-29T03:51:11.258Z,2.20
2023-04-29T03:53:38.168Z,2.40
2023-04-29T03:56:05.624Z,2.80
2023-04-29T03:58:32.510Z,2.60
2023-04-29T04:00:59.379Z,2.80
2023-04-29T04:03:31.052Z,2.90
2023-04-29T04:05:58.123Z,2.70
2023-04-29T04:08:25.030Z,2.70
2023-04-29T04:11:02.863Z,2.90
2023-04-29T04:13:37.560Z,2.60
2023-04-29T04:16:05.289Z,2.80
2023-04-29T04:18:32.327Z,3.40
2023-04-29T04:21:05.940Z,2.80
2023-04-29T04:26:01.620Z,2.70
2023-04-29T04:28:47.237Z,3.30
2023-04-29T04:31:20.808Z,3.00
2023-04-29T04:33:47.830Z,3.20
2023-04-29T04:36:15.131Z,2.80
2023-04-29T04:38:42.190Z,3.40
2023-04-29T04:41:13.222Z,3.10
2023-04-29T04:43:47.846Z,3.20
2023-04-29T04:46:20.454Z,3.00
2023-04-29T04:49:01.128Z,3.10
2023-04-29T04:51:29.477Z,3.50
2023-04-29T04:53:56.383Z,3.30
2023-04-29T04:56:26.608Z,3.00
2023-04-29T04:58:53.674Z,3.00
2023-04-29T05:01:21.207Z,3.00
2023-04-29T05:03:48.317Z,2.50
2023-04-29T05:06:16.337Z,3.30
2023-04-29T05:08:45.510Z,2.70
2023-04-29T05:11:22.330Z,2.40
2023-04-29T05:14:01.840Z,2.90
2023-04-29T05:16:28.984Z,2.50
2023-04-29T05:18:56.291Z,2.30
2023-04-29T05:21:25.444Z,2.40
2023-04-29T05:23:52.365Z,2.20
2023-04-29T05:26:19.285Z,2.00
2023-04-29T05:28:46.227Z,2.10
2023-04-29T05:31:13.907Z,2.40
2023-04-29T05:33:40.905Z,2.00
2023-04-29T05:36:08.371Z,1.80
2023-04-29T05:38:35.574Z,1.80
2023-04-29T05:41:04.933Z,2.10
2023-04-29T05:43:46.639Z,1.80
2023-04-29T05:46:16.587Z,1.60
2023-04-29T05:48:43.734Z,2.10
2023-04-29T05:51:10.854Z,1.50
2023-04-29T05:53:38.826Z,1.50
2023-04-29T05:56:08.381Z,1.40
2023-04-29T05:58:35.973Z,1.60
2023-04-29T06:01:03.349Z,1.70
2023-04-29T06:03:31.512Z,1.80
2023-04-29T06:06:17.133Z,1.40
2023-04-29T06:09:02.144Z,1.60
2023-04-29T06:11:31.648Z,1.50
2023-04-29T06:14:00.747Z,1.40
2023-04-29T06:16:28.334Z,1.40
2023-04-29T06:18:55.438Z,1.40
2023-04-29T06:21:22.300Z,1.50
2023-04-29T06:23:49.115Z,1.20
2023-04-29T06:26:17.114Z,1.20
2023-04-29T06:28:44.672Z,1.40
2023-04-29T06:31:11.963Z,1.50
2023-04-29T06:33:39.388Z,1.60
2023-04-29T06:36:06.529Z,1.80
2023-04-29T06:38:45.443Z,1.60
2023-04-29T06:41:34.179Z,1.40
2023-04-29T06:44:27.906Z,1.30
2023-04-29T06:47:05.075Z,1.30
2023-04-29T06:49:53.299Z,1.70
2023-04-29T06:52:21.834Z,1.80
2023-04-29T06:54:48.760Z,1.50
2023-04-29T06:57:15.648Z,1.50
2023-04-29T06:59:47.816Z,1.50
2023-04-29T07:02:14.770Z,1.50
2023-04-29T07:04:42.263Z,1.50
2023-04-29T07:07:09.888Z,1.40
2023-04-29T07:09:36.717Z,1.30
2023-04-29T07:12:05.005Z,1.30
2023-04-29T07:14:32.066Z,1.40
2023-04-29T07:16:59.224Z,1.30
2023-04-29T07:19:26.486Z,1.20
2023-04-29T07:21:53.269Z,1.50
2023-04-29T07:24:20.122Z,1.50
2023-04-29T07:26:48.965Z,1.30
2023-04-29T07:29:17.490Z,1.50
2023-04-29T07:31:44.528Z,1.40
2023-04-29T07:34:12.042Z,1.30
2023-04-29T07:36:39.354Z,1.80
2023-04-29T07:39:06.360Z,1.60
2023-04-29T07:41:33.335Z,1.20
2023-04-29T07:44:00.335Z,1.30
2023-04-29T07:46:27.319Z,1.40
2023-04-29T07:48:54.368Z,1.30
2023-04-29T07:51:21.945Z,1.50
2023-04-29T07:53:48.852Z,1.40
2023-04-29T07:56:16.396Z,1.20
2023-04-29T07:58:43.348Z,1.20
2023-04-29T08:01:11.990Z,1.60
2023-04-29T08:03:41.803Z,1.30
2023-04-29T08:06:09.794Z,1.30
2023-04-29T08:08:36.890Z,1.20
2023-04-29T08:11:04.706Z,1.40
2023-04-29T08:13:31.535Z,1.50
2023-04-29T08:15:58.340Z,1.40
2023-04-29T08:18:25.221Z,1.30
2023-04-29T08:20:52.178Z,1.40
2023-04-29T08:23:18.964Z,1.90
2023-04-29T08:25:45.883Z,1.50
2023-04-29T08:28:13.226Z,1.50
2023-04-29T08:30:41.082Z,1.60
2023-04-29T08:33:08.474Z,1.40
2023-04-29T08:35:38.799Z,1.40
2023-04-29T08:38:06.852Z,1.60
2023-04-29T08:40:37.354Z,1.70
2023-04-29T08:43:05.073Z,1.30
2023-04-29T08:45:32.675Z,1.30
2023-04-29T08:47:59.710Z,1.50
2023-04-29T08:50:26.622Z,1.90
2023-04-29T08:52:53.410Z,1.40
2023-04-29T08:55:20.349Z,1.30
2023-04-29T08:57:47.262Z,1.40
2023-04-29T09:00:14.156Z,1.50
2023-04-29T09:02:50.200Z,1.40
2023-04-29T09:05:17.192Z,1.30
2023-04-29T09:07:44.160Z,1.70
2023-04-29T09:10:11.835Z,2.10
2023-04-29T09:12:38.645Z,1.10
2023-04-29T09:15:06.336Z,1.70
2023-04-29T09:17:40.492Z,1.60
2023-04-29T09:20:28.422Z,1.80
2023-04-29T09:23:04.208Z,1.60
2023-04-29T09:25:31.685Z,1.70
2023-04-29T09:27:58.592Z,1.50
2023-04-29T09:30:27.000Z,1.90
2023-04-29T09:33:20.495Z,1.40
2023-04-29T09:38:16.327Z,1.60
2023-04-29T09:40:58.179Z,1.80
2023-04-29T09:43:26.973Z,1.80
2023-04-29T09:45:54.013Z,1.70
2023-04-29T09:48:20.865Z,1.70
2023-04-29T09:51:01.638Z,1.50
2023-04-29T09:53:29.890Z,2.00
2023-04-29T09:56:02.881Z,2.30
2023-04-29T09:58:42.175Z,1.90
2023-04-29T10:01:09.172Z,2.10
2023-04-29T10:03:38.257Z,1.90
2023-04-29T10:06:06.808Z,1.60
2023-04-29T10:08:34.070Z,1.70
2023-04-29T10:11:02.359Z,1.90
2023-04-29T10:13:29.343Z,1.90
2023-04-29T10:16:01.291Z,1.70
2023-04-29T10:18:36.724Z,1.90
2023-04-29T10:21:06.592Z,1.90
2023-04-29T10:23:33.711Z,2.00
2023-04-29T10:26:01.109Z,2.30
2023-04-29T10:28:28.273Z,2.00
2023-04-29T10:30:55.101Z,1.70
2023-04-29T10:33:23.463Z,1.80
2023-04-29T10:35:51.361Z,2.00
2023-04-29T10:38:24.598Z,2.30
2023-04-29T10:40:51.502Z,1.80
2023-04-29T10:43:24.097Z,2.50
2023-04-29T10:45:50.958Z,2.20
2023-04-29T10:48:21.109Z,2.70
2023-04-29T10:50:48.169Z,2.10
2023-04-29T10:53:16.094Z,1.80
2023-04-29T10:55:43.516Z,2.00
2023-04-29T10:58:36.111Z,1.90
2023-04-29T11:01:03.322Z,1.80
2023-04-29T11:03:58.459Z,1.80
2023-04-29T11:06:39.855Z,1.60
2023-04-29T11:09:09.866Z,1.90
2023-04-29T11:11:46.636Z,1.80
2023-04-29T11:14:14.145Z,1.90
2023-04-29T11:16:55.398Z,1.80
2023-04-29T11:19:27.056Z,2.40
2023-04-29T11:22:10.201Z,1.80
2023-04-29T11:24:37.078Z,1.80
2023-04-29T11:27:06.810Z,1.90
2023-04-29T11:29:33.763Z,2.00
2023-04-29T11:32:02.097Z,2.10
2023-04-29T11:34:29.052Z,2.10
2023-04-29T11:36:56.508Z,1.80
2023-04-29T11:39:23.307Z,1.70
2023-04-29T11:41:52.499Z,2.00
2023-04-29T11:44:23.819Z,1.60
2023-04-29T11:46:50.675Z,1.70
2023-04-29T11:49:17.609Z,1.70
2023-04-29T11:51:44.548Z,1.60
2023-04-29T11:54:11.487Z,1.70
2023-04-29T11:56:38.544Z,1.80
2023-04-29T11:59:08.180Z,1.60
2023-04-29T12:01:36.152Z,1.80
2023-04-29T12:04:04.120Z,1.60
2023-04-29T12:06:31.801Z,1.70
2023-04-29T12:09:00.029Z,1.60
2023-04-29T12:11:26.991Z,1.90
2023-04-29T12:13:55.186Z,1.50
2023-04-29T12:16:24.277Z,1.60
2023-04-29T12:18:52.744Z,1.70
2023-04-29T12:21:19.582Z,1.70
2023-04-29T12:23:46.706Z,1.70
2023-04-29T12:26:13.964Z,2.00
2023-04-29T12:28:41.995Z,1.80
2023-04-29T12:31:10.248Z,2.10
2023-04-29T12:33:37.765Z,1.60
2023-04-29T12:36:05.078Z,1.60
2023-04-29T12:38:31.962Z,1.60
2023-04-29T12:40:59.744Z,2.00
2023-04-29T12:43:30.195Z,1.70
2023-04-29T12:46:08.161Z,1.80
2023-04-29T12:48:38.250Z,2.00
2023-04-29T12:51:05.311Z,2.10
2023-04-29T12:53:33.047Z,2.00
2023-04-29T12:56:00.044Z,2.20
2023-04-29T12:58:30.715Z,1.70
2023-04-29T13:00:58.442Z,1.70
2023-04-29T13:03:26.936Z,1.80
2023-04-29T13:05:55.069Z,1.70
2023-04-29T13:08:23.179Z,1.90
2023-04-29T13:10:51.052Z,1.90
2023-04-29T13:13:17.862Z,1.70
2023-04-29T13:15:45.020Z,2.00
2023-04-29T13:18:12.010Z,1.90
2023-04-29T13:20:42.320Z,1.80
2023-04-29T13:23:10.198Z,1.60
2023-04-29T13:25:37.141Z,1.60
2023-04-29T13:28:05.660Z,2.00
2023-04-29T13:30:33.444Z,1.80
2023-04-29T13:33:08.458Z,1.70
2023-04-29T13:35:40.318Z,1.70
2023-04-29T13:38:08.366Z,1.60
2023-04-29T13:40:39.446Z,1.80
2023-04-29T13:43:09.541Z,1.90
2023-04-29T13:45:41.531Z,1.80
2023-04-29T13:48:28.327Z,2.00
2023-04-29T13:51:41.231Z,1.80
2023-04-29T13:54:37.211Z,1.50
2023-04-29T14:04:01.520Z,1.80
2023-04-29T14:06:28.589Z,1.50
2023-04-29T14:08:55.613Z,2.30
2023-04-29T14:11:22.422Z,1.60
2023-04-29T14:13:49.693Z,2.00
2023-04-29T14:16:17.130Z,1.70
2023-04-29T14:18:44.023Z,1.80
2023-04-29T14:21:11.541Z,2.00
2023-04-29T14:23:38.402Z,1.70
2023-04-29T14:26:22.992Z,1.80
2023-04-29T14:28:59.700Z,1.60
2023-04-29T14:31:28.916Z,1.90
2023-04-29T14:33:59.507Z,1.70
2023-04-29T14:36:29.252Z,1.80
2023-04-29T14:38:56.165Z,1.50
2023-04-29T14:41:23.036Z,1.50
2023-04-29T14:43:50.002Z,1.50
2023-04-29T14:46:17.109Z,1.70
2023-04-29T14:48:44.297Z,1.50
2023-04-29T14:51:11.643Z,1.30
2023-04-29T14:53:39.151Z,2.50
2023-04-29T14:56:06.686Z,1.70
2023-04-29T14:58:35.017Z,1.20
2023-04-29T15:01:01.991Z,1.60
2023-04-29T15:03:28.986Z,1.30
2023-04-29T15:05:56.501Z,1.70
2023-04-29T15:08:23.581Z,1.60
2023-04-29T15:10:50.851Z,1.20
2023-04-29T15:13:17.956Z,1.30
2023-04-29T15:15:45.413Z,1.30
2023-04-29T15:18:12.400Z,1.30
2023-04-29T15:20:42.680Z,1.50
2023-04-29T15:23:10.028Z,1.40
2023-04-29T15:25:38.489Z,1.30
2023-04-29T15:28:06.075Z,1.20
2023-04-29T15:30:33.083Z,1.50
2023-04-29T15:33:00.288Z,1.40
2023-04-29T15:35:27.903Z,1.20
2023-04-29T15:37:55.153Z,1.40
2023-04-29T15:40:22.171Z,1.50
2023-04-29T15:42:49.059Z,1.50
2023-04-29T15:45:17.108Z,1.40
2023-04-29T15:47:44.188Z,1.40
2023-04-29T15:50:11.238Z,1.80
2023-04-29T15:52:38.038Z,1.20
2023-04-29T15:55:11.041Z,1.30
2023-04-29T15:57:41.508Z,1.20
2023-04-29T16:00:09.074Z,1.30
2023-04-29T16:02:36.101Z,1.20
2023-04-29T16:06:52.545Z,1.50
2023-04-29T16:09:21.546Z,1.40
2023-04-29T16:11:48.541Z,1.80
2023-04-29T16:14:15.358Z,1.50
2023-04-29T16:16:42.323Z,1.40
2023-04-29T16:19:09.295Z,1.80
2023-04-29T16:21:36.534Z,1.30
2023-04-29T16:24:03.530Z,1.60
2023-04-29T16:26:32.217Z,1.50
2023-04-29T16:28:59.913Z,1.40
2023-04-29T16:31:27.811Z,2.00
2023-04-29T16:33:56.557Z,1.50
2023-04-29T16:36:24.038Z,1.70
2023-04-29T16:38:54.412Z,1.60
2023-04-29T16:41:26.204Z,1.70
2023-04-29T16:43:55.839Z,1.60
2023-04-29T16:46:22.558Z,1.50
2023-04-29T16:48:51.763Z,2.00
2023-04-29T16:51:18.675Z,1.60
2023-04-29T16:53:45.754Z,1.60
2023-04-29T16:56:16.239Z,1.70
2023-04-29T16:58:42.928Z,1.60
2023-04-29T17:01:09.711Z,1.40
2023-04-29T17:03:36.787Z,1.80
2023-04-29T17:06:04.895Z,1.60
2023-04-29T17:08:32.732Z,1.90
2023-04-29T17:10:59.353Z,2.20
2023-04-29T17:13:26.679Z,1.70
2023-04-29T17:15:53.422Z,1.90
2023-04-29T17:18:20.462Z,1.80
2023-04-29T17:20:48.774Z,1.80
2023-04-29T17:23:17.718Z,2.00
2023-04-29T17:25:44.604Z,2.70
2023-04-29T17:28:11.559Z,2.20
2023-04-29T17:30:38.894Z,2.10
2023-04-29T17:33:06.226Z,1.90
2023-04-29T17:35:33.661Z,2.00
2023-04-29T17:38:00.498Z,2.30
2023-04-29T17:40:27.561Z,2.40
2023-04-29T17:42:54.626Z,2.20
2023-04-29T17:45:21.274Z,2.70
2023-04-29T17:47:48.026Z,2.20
2023-04-29T17:50:14.935Z,1.90
2023-04-29T17:52:42.917Z,2.50
2023-04-29T17:55:10.163Z,2.20
2023-04-29T17:57:40.396Z,2.40
2023-04-29T18:00:07.894Z,2.60
2023-04-29T18:02:35.225Z,2.50
2023-04-29T18:05:02.850Z,2.40
2023-04-29T18:07:30.147Z,2.80
2023-04-29T18:09:57.746Z,2.50
2023-04-29T18:12:25.185Z,2.60
2023-04-29T18:14:52.117Z,2.60
2023-04-29T18:17:19.418Z,2.70
2023-04-29T18:19:48.705Z,3.20
2023-04-29T18:22:15.584Z,3.30
2023-04-29T18:24:42.523Z,3.70
2023-04-29T18:27:09.212Z,3.40
2023-04-29T18:29:35.862Z,2.90
2023-04-29T18:32:03.907Z,3.40
2023-04-29T18:34:32.112Z,3.20
2023-04-29T18:36:59.055Z,3.40
2023-04-29T18:39:25.910Z,3.20
2023-04-29T18:41:52.753Z,3.20
2023-04-29T18:44:19.580Z,3.70
2023-04-29T18:46:46.355Z,3.40
2023-04-29T18:49:16.239Z,3.50
2023-04-29T18:51:46.183Z,3.50
2023-04-29T18:54:19.441Z,3.30
2023-04-29T18:56:47.339Z,3.20
2023-04-29T18:59:18.382Z,3.20
2023-04-29T19:01:45.823Z,3.30
2023-04-29T19:04:13.002Z,3.50
2023-04-29T19:06:41.045Z,4.00
2023-04-29T19:09:07.916Z,3.60
2023-04-29T19:11:34.727Z,3.80
2023-04-29T19:14:03.451Z,3.80
2023-04-29T19:16:30.443Z,3.90
2023-04-29T19:18:57.234Z,3.90
2023-04-29T19:21:23.943Z,4.20
2023-04-29T19:23:50.735Z,3.70
2023-04-29T19:26:17.386Z,3.70
2023-04-29T19:28:44.142Z,3.80
2023-04-29T19:31:11.223Z,3.80
2023-04-29T19:33:38.322Z,4.10
2023-04-29T19:36:05.008Z,4.20
2023-04-29T19:38:31.890Z,4.30
2023-04-29T19:40:58.538Z,4.60
2023-04-29T19:43:25.274Z,4.40
2023-04-29T19:45:51.981Z,4.50
2023-04-29T19:48:18.840Z,4.70
2023-04-29T19:50:45.620Z,5.30
2023-04-29T19:53:12.572Z,4.30
2023-04-29T19:55:39.435Z,3.30
2023-04-29T19:58:07.649Z,3.70
2023-04-29T20:00:34.476Z,4.30
2023-04-29T20:03:02.043Z,4.10
2023-04-29T20:05:29.148Z,3.90
2023-04-29T20:07:56.406Z,3.60
2023-04-29T20:10:23.166Z,3.60
2023-04-29T20:12:50.145Z,3.00
2023-04-29T20:15:16.923Z,3.40
2023-04-29T20:17:43.760Z,3.10
2023-04-29T20:20:10.929Z,3.30
2023-04-29T20:22:38.464Z,3.80
2023-04-29T20:25:05.920Z,3.40
2023-04-29T20:27:32.718Z,3.90
2023-04-29T20:29:59.646Z,3.50
2023-04-29T20:32:26.893Z,2.70
2023-04-29T20:34:53.886Z,3.60
2023-04-29T20:37:20.898Z,3.80
2023-04-29T20:39:48.166Z,3.40
2023-04-29T20:42:14.809Z,3.10
2023-04-29T20:44:41.588Z,3.30
2023-04-29T20:47:08.319Z,3.40
2023-04-29T20:49:35.223Z,3.50
2023-04-29T20:52:02.312Z,3.00
2023-04-29T20:54:29.137Z,3.50
2023-04-29T20:56:56.244Z,3.50
2023-04-29T20:59:23.364Z,3.70
2023-04-29T21:01:50.353Z,3.60
2023-04-29T21:04:17.217Z,3.10
2023-04-29T21:06:44.102Z,3.40
2023-04-29T21:09:11.364Z,3.50
2023-04-29T21:11:38.136Z,3.50
2023-04-29T21:14:04.882Z,2.90
2023-04-29T21:16:31.698Z,4.20
2023-04-29T21:18:58.448Z,3.50
2023-04-29T21:21:25.678Z,3.60
2023-04-29T21:23:52.447Z,3.30
2023-04-29T21:26:19.080Z,3.40
2023-04-29T21:28:48.174Z,3.50
2023-04-29T21:31:15.739Z,3.70
2023-04-29T21:33:45.672Z,4.70
2023-04-29T21:36:12.726Z,3.90
2023-04-29T21:38:41.891Z,3.50
2023-04-29T21:41:16.702Z,3.70
2023-04-29T21:43:43.510Z,4.50
2023-04-29T21:46:10.246Z,3.60
2023-04-29T21:48:37.597Z,3.90
2023-04-29T21:51:06.769Z,3.80
2023-04-29T21:53:34.508Z,3.70
2023-04-29T21:56:01.300Z,3.90
2023-04-29T21:58:28.174Z,3.80
2023-04-29T22:01:02.771Z,3.70
2023-04-29T22:03:29.830Z,4.20
2023-04-29T22:05:57.103Z,4.00
2023-04-29T22:08:27.020Z,4.10
2023-04-29T22:10:53.707Z,4.20
2023-04-29T22:13:21.017Z,4.00
2023-04-29T22:15:47.921Z,4.10
2023-04-29T22:18:14.823Z,4.00
2023-04-29T22:20:41.557Z,4.10
2023-04-29T22:23:11.794Z,4.80
2023-04-29T22:25:38.511Z,3.90
2023-04-29T22:28:05.329Z,4.70
2023-04-29T22:30:32.120Z,4.20
2023-04-29T22:32:58.810Z,4.40
2023-04-29T22:35:25.510Z,4.30
2023-04-29T22:37:52.235Z,4.60
2023-04-29T22:40:18.969Z,4.50
2023-04-29T22:42:45.716Z,4.00
2023-04-29T22:45:12.686Z,4.20
2023-04-29T22:47:39.484Z,4.10
2023-04-29T22:50:07.049Z,4.50
2023-04-29T22:52:34.178Z,4.20
2023-04-29T22:55:01.046Z,5.10
2023-04-29T22:57:28.141Z,4.00
2023-04-29T22:59:56.719Z,4.80
2023-04-29T23:02:30.403Z,4.70
2023-04-29T23:04:58.730Z,5.10
2023-04-29T23:07:26.962Z,4.90
2023-04-29T23:09:53.979Z,4.90
2023-04-29T23:12:21.138Z,4.80
2023-04-29T23:14:50.277Z,4.90
2023-04-29T23:17:16.942Z,4.80
2023-04-29T23:19:43.722Z,4.30
2023-04-29T23:22:10.549Z,4.20
2023-04-29T23:24:37.559Z,5.40
2023-04-29T23:27:05.587Z,5.20
2023-04-29T23:29:33.485Z,4.40
2023-04-29T23:32:00.616Z,4.10
2023-04-29T23:34:27.326Z,4.60
2023-04-29T23:36:54.564Z,4.20
2023-04-29T23:39:21.368Z,4.40
2023-04-29T23:41:48.088Z,4.90
2023-04-29T23:44:14.879Z,5.10
2023-04-29T23:46:41.688Z,5.00
2023-04-29T23:49:09.796Z,4.10
2023-04-29T23:51:36.950Z,5.00
2023-04-29T23:54:03.714Z,4.40
2023-04-29T23:56:33.112Z,4.10
2023-04-29T23:59:00.143Z,4.40
